sensor_id;sensor_type;location;lat;lon;timestamp;pressure;altitude;pressure_sealevel;temperature;humidity
76205;BME280;64986;55.672;37.628;2023-09-19T02:06:57;100022.53;;;11.50;nan
76205;BME280;64986;55.672;37.628;2023-09-19T02:09:23;100021.66;;;11.36;nan
76205;BME280;64986;55.672;37.628;2023-09-19T02:11:49;100027.31;;;11.26;nan
76205;BME280;64986;55.672;37.628;2023-09-19T02:14:14;100023.19;;;11.17;nan
76205;BME280;64986;55.672;37.628;2023-09-19T02:16:40;100010.38;;;11.07;nan
76205;BME280;64986;55.672;37.628;2023-09-19T02:19:05;100011.13;;;10.95;nan
76205;BME280;64986;55.672;37.628;2023-09-19T02:21:31;100012.91;;;10.88;nan
76205;BME280;64986;55.672;37.628;2023-09-19T02:23:58;100017.13;;;10.82;nan
76205;BME280;64986;55.672;37.628;2023-09-19T02:26:24;100039.06;;;10.89;nan
76205;BME280;64986;55.672;37.628;2023-09-19T02:28:49;100009.38;;;10.74;nan
76205;BME280;64986;55.672;37.628;2023-09-19T02:31:15;100013.78;;;10.67;nan
76205;BME280;64986;55.672;37.628;2023-09-19T02:33:41;100009.09;;;10.62;nan
76205;BME280;64986;55.672;37.628;2023-09-19T02:36:07;100009.50;;;10.59;nan
76205;BME280;64986;55.672;37.628;2023-09-19T02:38:34;100011.06;;;10.53;nan
76205;BME280;64986;55.672;37.628;2023-09-19T02:40:59;100018.34;;;10.51;nan
76205;BME280;64986;55.672;37.628;2023-09-19T02:43:25;100011.22;;;10.45;nan
76205;BME280;64986;55.672;37.628;2023-09-19T02:45:51;100021.94;;;10.44;nan
76205;BME280;64986;55.672;37.628;2023-09-19T02:48:18;100020.31;;;10.43;nan
76205;BME280;64986;55.672;37.628;2023-09-19T02:50:44;100020.09;;;10.44;nan
76205;BME280;64986;55.672;37.628;2023-09-19T02:53:10;100012.81;;;10.46;nan
76205;BME280;64986;55.672;37.628;2023-09-19T02:55:38;100012.00;;;10.46;nan
76205;BME280;64986;55.672;37.628;2023-09-19T02:58:06;100017.53;;;10.51;nan
76205;BME280;64986;55.672;37.628;2023-09-19T03:00:33;100017.34;;;10.52;nan
76205;BME280;64986;55.672;37.628;2023-09-19T03:03:01;100013.69;;;10.53;nan
76205;BME280;64986;55.672;37.628;2023-09-19T03:05:27;100014.69;;;10.52;nan
76205;BME280;64986;55.672;37.628;2023-09-19T03:07:56;100012.25;;;10.51;nan
76205;BME280;64986;55.672;37.628;2023-09-19T03:10:22;100013.88;;;10.52;nan
76205;BME280;64986;55.672;37.628;2023-09-19T03:12:50;100010.44;;;10.51;nan
76205;BME280;64986;55.672;37.628;2023-09-19T03:15:16;100013.13;;;10.58;nan
76205;BME280;64986;55.672;37.628;2023-09-19T03:17:43;100009.56;;;10.72;nan
76205;BME280;64986;55.672;37.628;2023-09-19T03:20:10;100007.63;;;10.81;nan
76205;BME280;64986;55.672;37.628;2023-09-19T03:22:38;100016.22;;;10.96;nan
76205;BME280;64986;55.672;37.628;2023-09-19T03:25:04;100012.22;;;11.07;nan
76205;BME280;64986;55.672;37.628;2023-09-19T03:27:34;100018.56;;;11.19;nan
76205;BME280;64986;55.672;37.628;2023-09-19T03:30:00;100004.97;;;11.22;nan
76205;BME280;64986;55.672;37.628;2023-09-19T03:32:25;100013.56;;;11.37;nan
76205;BME280;64986;55.672;37.628;2023-09-19T03:34:51;100021.50;;;11.44;nan
76205;BME280;64986;55.672;37.628;2023-09-19T03:37:17;100013.00;;;11.49;nan
76205;BME280;64986;55.672;37.628;2023-09-19T03:39:42;100018.09;;;11.57;nan
76205;BME280;64986;55.672;37.628;2023-09-19T03:42:08;100014.06;;;11.61;nan
76205;BME280;64986;55.672;37.628;2023-09-19T03:44:33;100014.84;;;11.61;nan
76205;BME280;64986;55.672;37.628;2023-09-19T03:46:59;100010.41;;;11.68;nan
76205;BME280;64986;55.672;37.628;2023-09-19T03:49:24;100005.75;;;11.71;nan
76205;BME280;64986;55.672;37.628;2023-09-19T03:51:50;100007.59;;;11.77;nan
76205;BME280;64986;55.672;37.628;2023-09-19T03:54:15;100008.19;;;11.79;nan
76205;BME280;64986;55.672;37.628;2023-09-19T03:56:42;100012.91;;;11.83;nan
76205;BME280;64986;55.672;37.628;2023-09-19T03:59:09;100015.38;;;11.91;nan
76205;BME280;64986;55.672;37.628;2023-09-19T04:01:35;100017.19;;;11.91;nan
76205;BME280;64986;55.672;37.628;2023-09-19T04:04:00;100010.91;;;11.92;nan
76205;BME280;64986;55.672;37.628;2023-09-19T04:06:34;100006.44;;;11.92;nan
76205;BME280;64986;55.672;37.628;2023-09-19T04:09:01;100012.94;;;11.90;nan
76205;BME280;64986;55.672;37.628;2023-09-19T04:11:27;100008.28;;;11.92;nan
76205;BME280;64986;55.672;37.628;2023-09-19T04:13:52;100005.41;;;11.93;nan
76205;BME280;64986;55.672;37.628;2023-09-19T04:16:18;100005.63;;;11.92;nan
76205;BME280;64986;55.672;37.628;2023-09-19T04:18:44;99997.13;;;12.03;nan
76205;BME280;64986;55.672;37.628;2023-09-19T04:21:09;99995.31;;;12.10;nan
76205;BME280;64986;55.672;37.628;2023-09-19T04:23:35;99994.09;;;12.19;nan
76205;BME280;64986;55.672;37.628;2023-09-19T04:26:00;100002.03;;;12.26;nan
76205;BME280;64986;55.672;37.628;2023-09-19T04:28:26;99986.19;;;12.26;nan
76205;BME280;64986;55.672;37.628;2023-09-19T04:30:53;99993.28;;;12.26;nan
76205;BME280;64986;55.672;37.628;2023-09-19T04:33:20;99986.56;;;12.30;nan
76205;BME280;64986;55.672;37.628;2023-09-19T04:35:51;99991.03;;;12.29;nan
76205;BME280;64986;55.672;37.628;2023-09-19T04:38:18;99988.19;;;12.31;nan
76205;BME280;64986;55.672;37.628;2023-09-19T04:40:44;99980.09;;;12.32;nan
76205;BME280;64986;55.672;37.628;2023-09-19T04:43:10;99978.28;;;12.33;nan
76205;BME280;64986;55.672;37.628;2023-09-19T04:45:35;99979.25;;;12.38;nan
76205;BME280;64986;55.672;37.628;2023-09-19T04:48:04;99961.78;;;12.37;nan
76205;BME280;64986;55.672;37.628;2023-09-19T04:50:29;99970.09;;;12.54;nan
76205;BME280;64986;55.672;37.628;2023-09-19T04:52:55;99978.00;;;12.61;nan
76205;BME280;64986;55.672;37.628;2023-09-19T04:55:20;99987.38;;;12.70;nan
76205;BME280;64986;55.672;37.628;2023-09-19T04:57:48;99990.16;;;12.88;nan
76205;BME280;64986;55.672;37.628;2023-09-19T05:00:15;99988.53;;;13.00;nan
76205;BME280;64986;55.672;37.628;2023-09-19T05:02:43;99987.84;;;13.18;nan
76205;BME280;64986;55.672;37.628;2023-09-19T05:05:09;99965.47;;;13.21;nan
76205;BME280;64986;55.672;37.628;2023-09-19T05:07:40;99976.19;;;13.39;nan
76205;BME280;64986;55.672;37.628;2023-09-19T05:10:06;99979.97;;;13.56;nan
76205;BME280;64986;55.672;37.628;2023-09-19T05:12:35;99972.16;;;13.68;nan
76205;BME280;64986;55.672;37.628;2023-09-19T05:15:04;99965.81;;;13.76;nan
76205;BME280;64986;55.672;37.628;2023-09-19T05:17:35;99977.81;;;13.78;nan
76205;BME280;64986;55.672;37.628;2023-09-19T05:20:02;99974.09;;;13.86;nan
76205;BME280;64986;55.672;37.628;2023-09-19T05:22:31;99967.72;;;13.94;nan
76205;BME280;64986;55.672;37.628;2023-09-19T05:24:58;99965.50;;;13.91;nan
76205;BME280;64986;55.672;37.628;2023-09-19T05:27:24;99963.88;;;13.89;nan
76205;BME280;64986;55.672;37.628;2023-09-19T05:29:49;99968.38;;;13.82;nan
76205;BME280;64986;55.672;37.628;2023-09-19T05:32:17;99956.66;;;13.72;nan
76205;BME280;64986;55.672;37.628;2023-09-19T05:34:45;99965.09;;;13.62;nan
76205;BME280;64986;55.672;37.628;2023-09-19T05:37:12;99962.22;;;13.64;nan
76205;BME280;64986;55.672;37.628;2023-09-19T05:39:38;99956.59;;;13.53;nan
76205;BME280;64986;55.672;37.628;2023-09-19T05:42:05;99969.19;;;13.51;nan
76205;BME280;64986;55.672;37.628;2023-09-19T05:44:30;99961.47;;;13.50;nan
76205;BME280;64986;55.672;37.628;2023-09-19T05:46:58;99966.13;;;13.54;nan
76205;BME280;64986;55.672;37.628;2023-09-19T05:49:23;99953.75;;;13.48;nan
76205;BME280;64986;55.672;37.628;2023-09-19T05:51:50;99957.59;;;13.52;nan
76205;BME280;64986;55.672;37.628;2023-09-19T05:54:19;99951.66;;;13.57;nan
76205;BME280;64986;55.672;37.628;2023-09-19T05:56:45;99955.38;;;13.49;nan
76205;BME280;64986;55.672;37.628;2023-09-19T05:59:12;99942.13;;;13.56;nan
76205;BME280;64986;55.672;37.628;2023-09-19T06:01:42;99944.25;;;13.72;nan
76205;BME280;64986;55.672;37.628;2023-09-19T06:04:07;99953.19;;;13.78;nan
76205;BME280;64986;55.672;37.628;2023-09-19T06:06:33;99955.78;;;13.84;nan
76205;BME280;64986;55.672;37.628;2023-09-19T06:09:06;99953.47;;;13.95;nan
76205;BME280;64986;55.672;37.628;2023-09-19T06:11:34;99961.97;;;13.97;nan
76205;BME280;64986;55.672;37.628;2023-09-19T06:14:03;99954.13;;;14.15;nan
76205;BME280;64986;55.672;37.628;2023-09-19T06:16:29;99943.44;;;14.28;nan
76205;BME280;64986;55.672;37.628;2023-09-19T06:18:55;99951.72;;;14.32;nan
76205;BME280;64986;55.672;37.628;2023-09-19T06:21:24;99946.22;;;14.33;nan
76205;BME280;64986;55.672;37.628;2023-09-19T06:23:52;99953.94;;;14.35;nan
76205;BME280;64986;55.672;37.628;2023-09-19T06:26:17;99943.63;;;14.52;nan
76205;BME280;64986;55.672;37.628;2023-09-19T06:28:43;99940.47;;;14.61;nan
76205;BME280;64986;55.672;37.628;2023-09-19T06:31:09;99951.69;;;14.82;nan
76205;BME280;64986;55.672;37.628;2023-09-19T06:33:37;99945.78;;;14.98;nan
76205;BME280;64986;55.672;37.628;2023-09-19T06:36:05;99943.88;;;15.05;nan
76205;BME280;64986;55.672;37.628;2023-09-19T06:38:31;99935.59;;;15.13;nan
76205;BME280;64986;55.672;37.628;2023-09-19T06:40:58;99939.72;;;15.27;nan
76205;BME280;64986;55.672;37.628;2023-09-19T06:43:24;99942.06;;;15.47;nan
76205;BME280;64986;55.672;37.628;2023-09-19T06:45:49;99929.41;;;15.91;nan
76205;BME280;64986;55.672;37.628;2023-09-19T06:48:17;99930.94;;;16.57;nan
76205;BME280;64986;55.672;37.628;2023-09-19T06:50:44;99931.50;;;16.95;nan
76205;BME280;64986;55.672;37.628;2023-09-19T06:53:10;99953.44;;;17.02;nan
76205;BME280;64986;55.672;37.628;2023-09-19T06:55:35;99948.94;;;16.90;nan
76205;BME280;64986;55.672;37.628;2023-09-19T06:58:02;99948.28;;;17.24;nan
76205;BME280;64986;55.672;37.628;2023-09-19T07:00:28;99945.94;;;17.27;nan
76205;BME280;64986;55.672;37.628;2023-09-19T07:03:07;99946.81;;;17.44;nan
76205;BME280;64986;55.672;37.628;2023-09-19T07:05:39;99937.31;;;17.48;nan
76205;BME280;64986;55.672;37.628;2023-09-19T07:08:09;99943.72;;;17.36;nan
76205;BME280;64986;55.672;37.628;2023-09-19T07:10:38;99934.97;;;17.52;nan
76205;BME280;64986;55.672;37.628;2023-09-19T07:13:07;99936.72;;;17.75;nan
76205;BME280;64986;55.672;37.628;2023-09-19T07:15:37;99935.00;;;17.69;nan
76205;BME280;64986;55.672;37.628;2023-09-19T07:18:15;99942.38;;;17.50;nan
76205;BME280;64986;55.672;37.628;2023-09-19T07:20:45;99942.81;;;17.59;nan
76205;BME280;64986;55.672;37.628;2023-09-19T07:23:23;99940.38;;;17.57;nan
76205;BME280;64986;55.672;37.628;2023-09-19T07:25:49;99937.34;;;17.65;nan
76205;BME280;64986;55.672;37.628;2023-09-19T07:28:15;99937.78;;;17.74;nan
76205;BME280;64986;55.672;37.628;2023-09-19T07:30:41;99933.09;;;17.53;nan
76205;BME280;64986;55.672;37.628;2023-09-19T07:33:07;99934.75;;;17.54;nan
76205;BME280;64986;55.672;37.628;2023-09-19T07:35:33;99932.94;;;17.88;nan
76205;BME280;64986;55.672;37.628;2023-09-19T07:37:59;99934.75;;;18.54;nan
76205;BME280;64986;55.672;37.628;2023-09-19T07:40:29;99944.28;;;19.11;nan
76205;BME280;64986;55.672;37.628;2023-09-19T07:42:55;99943.25;;;19.12;nan
76205;BME280;64986;55.672;37.628;2023-09-19T07:45:21;99948.47;;;19.02;nan
76205;BME280;64986;55.672;37.628;2023-09-19T07:47:48;99945.09;;;19.11;nan
76205;BME280;64986;55.672;37.628;2023-09-19T07:50:14;99949.59;;;19.06;nan
76205;BME280;64986;55.672;37.628;2023-09-19T07:52:41;99936.16;;;19.23;nan
76205;BME280;64986;55.672;37.628;2023-09-19T07:55:08;99924.53;;;19.34;nan
76205;BME280;64986;55.672;37.628;2023-09-19T07:57:37;99918.94;;;19.35;nan
76205;BME280;64986;55.672;37.628;2023-09-19T08:00:03;99907.88;;;19.22;nan
76205;BME280;64986;55.672;37.628;2023-09-19T08:02:36;99911.13;;;19.29;nan
76205;BME280;64986;55.672;37.628;2023-09-19T08:05:04;99907.66;;;19.55;nan
76205;BME280;64986;55.672;37.628;2023-09-19T08:07:38;99902.84;;;19.84;nan
76205;BME280;64986;55.672;37.628;2023-09-19T08:10:05;99898.34;;;19.90;nan
76205;BME280;64986;55.672;37.628;2023-09-19T08:12:38;99898.84;;;20.24;nan
76205;BME280;64986;55.672;37.628;2023-09-19T08:15:20;99890.88;;;20.29;nan
76205;BME280;64986;55.672;37.628;2023-09-19T08:17:46;99898.94;;;20.92;nan
76205;BME280;64986;55.672;37.628;2023-09-19T08:20:12;99901.63;;;20.87;nan
76205;BME280;64986;55.672;37.628;2023-09-19T08:22:50;99891.06;;;21.43;nan
76205;BME280;64986;55.672;37.628;2023-09-19T08:25:25;99891.63;;;21.80;nan
76205;BME280;64986;55.672;37.628;2023-09-19T08:27:51;99884.13;;;22.08;nan
76205;BME280;64986;55.672;37.628;2023-09-19T08:30:19;99884.63;;;22.20;nan
76205;BME280;64986;55.672;37.628;2023-09-19T08:32:58;99892.16;;;21.82;nan
76205;BME280;64986;55.672;37.628;2023-09-19T08:35:24;99887.03;;;22.27;nan
76205;BME280;64986;55.672;37.628;2023-09-19T08:37:50;99878.66;;;22.49;nan
76205;BME280;64986;55.672;37.628;2023-09-19T08:40:16;99874.31;;;22.58;nan
76205;BME280;64986;55.672;37.628;2023-09-19T08:42:51;99876.94;;;22.78;nan
76205;BME280;64986;55.672;37.628;2023-09-19T08:45:22;99874.59;;;22.51;nan
76205;BME280;64986;55.672;37.628;2023-09-19T08:50:54;99871.72;;;22.27;nan
76205;BME280;64986;55.672;37.628;2023-09-19T08:53:27;99873.13;;;21.99;nan
76205;BME280;64986;55.672;37.628;2023-09-19T08:55:58;99870.19;;;21.70;nan
76205;BME280;64986;55.672;37.628;2023-09-19T08:58:31;99870.72;;;21.57;nan
76205;BME280;64986;55.672;37.628;2023-09-19T09:01:00;99857.06;;;21.48;nan
76205;BME280;64986;55.672;37.628;2023-09-19T09:03:32;99855.66;;;21.25;nan
76205;BME280;64986;55.672;37.628;2023-09-19T09:06:00;99857.22;;;21.06;nan
76205;BME280;64986;55.672;37.628;2023-09-19T09:08:27;99863.59;;;20.80;nan
76205;BME280;64986;55.672;37.628;2023-09-19T09:10:54;99863.84;;;20.83;nan
76205;BME280;64986;55.672;37.628;2023-09-19T09:13:19;99856.91;;;20.82;nan
76205;BME280;64986;55.672;37.628;2023-09-19T09:15:47;99854.56;;;21.01;nan
76205;BME280;64986;55.672;37.628;2023-09-19T09:18:13;99850.28;;;21.10;nan
76205;BME280;64986;55.672;37.628;2023-09-19T09:20:39;99852.75;;;21.32;nan
76205;BME280;64986;55.672;37.628;2023-09-19T09:23:04;99849.53;;;21.66;nan
76205;BME280;64986;55.672;37.628;2023-09-19T09:25:57;99859.16;;;22.23;nan
76205;BME280;64986;55.672;37.628;2023-09-19T09:28:29;99868.25;;;22.27;nan
76205;BME280;64986;55.672;37.628;2023-09-19T09:30:56;99859.47;;;22.81;nan
76205;BME280;64986;55.672;37.628;2023-09-19T09:33:23;99857.97;;;23.53;nan
76205;BME280;64986;55.672;37.628;2023-09-19T09:35:59;99860.91;;;24.62;nan
76205;BME280;64986;55.672;37.628;2023-09-19T09:38:30;99847.13;;;25.44;nan
76205;BME280;64986;55.672;37.628;2023-09-19T09:41:09;99841.13;;;27.04;nan
76205;BME280;64986;55.672;37.628;2023-09-19T09:43:39;99852.72;;;26.41;nan
76205;BME280;64986;55.672;37.628;2023-09-19T09:46:14;99841.03;;;26.45;nan
76205;BME280;64986;55.672;37.628;2023-09-19T09:49:07;99833.72;;;26.96;nan
76205;BME280;64986;55.672;37.628;2023-09-19T09:51:48;99842.00;;;26.36;nan
76205;BME280;64986;55.672;37.628;2023-09-19T09:54:23;99835.28;;;24.89;nan
76205;BME280;64986;55.672;37.628;2023-09-19T09:56:59;99845.75;;;24.72;nan
76205;BME280;64986;55.672;37.628;2023-09-19T09:59:47;99844.28;;;24.37;nan
76205;BME280;64986;55.672;37.628;2023-09-19T10:02:16;99840.00;;;24.06;nan
76205;BME280;64986;55.672;37.628;2023-09-19T10:04:48;99831.56;;;24.42;nan
76205;BME280;64986;55.672;37.628;2023-09-19T10:07:29;99825.03;;;24.48;nan
76205;BME280;64986;55.672;37.628;2023-09-19T10:10:02;99823.84;;;24.35;nan
76205;BME280;64986;55.672;37.628;2023-09-19T10:12:54;99825.09;;;24.43;nan
76205;BME280;64986;55.672;37.628;2023-09-19T10:15:32;99819.03;;;24.94;nan
76205;BME280;64986;55.672;37.628;2023-09-19T10:18:00;99818.63;;;26.31;nan
76205;BME280;64986;55.672;37.628;2023-09-19T10:20:28;99817.94;;;26.53;nan
76205;BME280;64986;55.672;37.628;2023-09-19T10:23:05;99817.81;;;26.44;nan
76205;BME280;64986;55.672;37.628;2023-09-19T10:25:37;99809.84;;;26.53;nan
76205;BME280;64986;55.672;37.628;2023-09-19T10:28:06;99813.19;;;28.72;nan
76205;BME280;64986;55.672;37.628;2023-09-19T10:30:37;99796.13;;;30.56;nan
76205;BME280;64986;55.672;37.628;2023-09-19T10:33:04;99796.88;;;32.46;nan
76205;BME280;64986;55.672;37.628;2023-09-19T10:35:32;99784.59;;;34.12;nan
76205;BME280;64986;55.672;37.628;2023-09-19T10:38:02;99788.78;;;35.15;nan
76205;BME280;64986;55.672;37.628;2023-09-19T10:40:29;99779.94;;;35.44;nan
76205;BME280;64986;55.672;37.628;2023-09-19T10:43:02;99787.91;;;36.25;nan
76205;BME280;64986;55.672;37.628;2023-09-19T10:45:35;99783.44;;;36.40;nan
76205;BME280;64986;55.672;37.628;2023-09-19T10:48:04;99783.63;;;36.01;nan
76205;BME280;64986;55.672;37.628;2023-09-19T10:50:35;99783.56;;;35.52;nan
76205;BME280;64986;55.672;37.628;2023-09-19T10:53:04;99775.69;;;35.47;nan
76205;BME280;64986;55.672;37.628;2023-09-19T10:55:34;99776.28;;;35.82;nan
76205;BME280;64986;55.672;37.628;2023-09-19T10:58:01;99776.00;;;36.14;nan
76205;BME280;64986;55.672;37.628;2023-09-19T11:00:30;99770.25;;;35.96;nan
76205;BME280;64986;55.672;37.628;2023-09-19T11:05:41;99769.53;;;38.15;nan
76205;BME280;64986;55.672;37.628;2023-09-19T11:08:10;99762.63;;;38.43;nan
76205;BME280;64986;55.672;37.628;2023-09-19T11:13:30;99762.16;;;39.31;nan
76205;BME280;64986;55.672;37.628;2023-09-19T11:16:04;99768.63;;;38.66;nan
76205;BME280;64986;55.672;37.628;2023-09-19T11:24:28;99764.16;;;39.84;nan
76205;BME280;64986;55.672;37.628;2023-09-19T11:27:15;99762.94;;;40.14;nan
76205;BME280;64986;55.672;37.628;2023-09-19T11:29:43;99744.03;;;39.52;nan
76205;BME280;64986;55.672;37.628;2023-09-19T11:32:08;99748.00;;;39.58;nan
76205;BME280;64986;55.672;37.628;2023-09-19T11:34:39;99743.66;;;39.75;nan
76205;BME280;64986;55.672;37.628;2023-09-19T11:40:07;99746.19;;;40.71;nan
76205;BME280;64986;55.672;37.628;2023-09-19T11:42:47;99740.50;;;39.23;nan
76205;BME280;64986;55.672;37.628;2023-09-19T11:48:18;99741.50;;;40.61;nan
76205;BME280;64986;55.672;37.628;2023-09-19T11:50:44;99739.22;;;40.27;nan
76205;BME280;64986;55.672;37.628;2023-09-19T11:53:13;99738.88;;;40.18;nan
76205;BME280;64986;55.672;37.628;2023-09-19T11:55:40;99733.72;;;40.31;nan
76205;BME280;64986;55.672;37.628;2023-09-19T11:58:08;99728.22;;;41.08;nan
76205;BME280;64986;55.672;37.628;2023-09-19T12:00:35;99722.31;;;40.21;nan
76205;BME280;64986;55.672;37.628;2023-09-19T12:03:09;99724.75;;;39.34;nan
76205;BME280;64986;55.672;37.628;2023-09-19T12:05:35;99713.75;;;39.23;nan
76205;BME280;64986;55.672;37.628;2023-09-19T12:08:03;99710.09;;;38.83;nan
76205;BME280;64986;55.672;37.628;2023-09-19T12:10:29;99715.22;;;38.71;nan
76205;BME280;64986;55.672;37.628;2023-09-19T12:12:55;99705.06;;;39.00;nan
76205;BME280;64986;55.672;37.628;2023-09-19T12:15:25;99701.16;;;39.61;nan
76205;BME280;64986;55.672;37.628;2023-09-19T12:17:59;99697.00;;;40.52;nan
76205;BME280;64986;55.672;37.628;2023-09-19T12:20:25;99691.91;;;40.39;nan
76205;BME280;64986;55.672;37.628;2023-09-19T12:22:50;99689.28;;;39.93;nan
76205;BME280;64986;55.672;37.628;2023-09-19T12:25:16;99681.78;;;40.04;nan
76205;BME280;64986;55.672;37.628;2023-09-19T12:27:50;99686.97;;;39.52;nan
76205;BME280;64986;55.672;37.628;2023-09-19T12:30:19;99678.69;;;39.13;nan
76205;BME280;64986;55.672;37.628;2023-09-19T12:32:46;99680.25;;;39.75;nan
76205;BME280;64986;55.672;37.628;2023-09-19T12:35:28;99675.56;;;39.64;nan
76205;BME280;64986;55.672;37.628;2023-09-19T12:37:55;99673.16;;;39.91;nan
76205;BME280;64986;55.672;37.628;2023-09-19T12:40:22;99673.22;;;39.31;nan
76205;BME280;64986;55.672;37.628;2023-09-19T12:42:53;99675.66;;;40.59;nan
76205;BME280;64986;55.672;37.628;2023-09-19T12:45:20;99661.66;;;41.43;nan
76205;BME280;64986;55.672;37.628;2023-09-19T12:51:02;99659.75;;;41.37;nan
76205;BME280;64986;55.672;37.628;2023-09-19T12:56:06;99656.81;;;41.06;nan
76205;BME280;64986;55.672;37.628;2023-09-19T12:58:32;99657.31;;;40.17;nan
76205;BME280;64986;55.672;37.628;2023-09-19T13:00:59;99649.78;;;38.28;nan
76205;BME280;64986;55.672;37.628;2023-09-19T13:03:26;99657.25;;;35.80;nan
76205;BME280;64986;55.672;37.628;2023-09-19T13:05:54;99644.16;;;36.26;nan
76205;BME280;64986;55.672;37.628;2023-09-19T13:08:28;99644.97;;;37.42;nan
76205;BME280;64986;55.672;37.628;2023-09-19T13:13:45;99642.88;;;36.17;nan
76205;BME280;64986;55.672;37.628;2023-09-19T13:16:15;99643.81;;;37.46;nan
76205;BME280;64986;55.672;37.628;2023-09-19T13:18:46;99638.50;;;37.71;nan
76205;BME280;64986;55.672;37.628;2023-09-19T13:21:13;99636.91;;;38.50;nan
76205;BME280;64986;55.672;37.628;2023-09-19T13:24:20;99638.19;;;39.31;nan
76205;BME280;64986;55.672;37.628;2023-09-19T13:26:46;99631.16;;;35.90;nan
76205;BME280;64986;55.672;37.628;2023-09-19T13:29:12;99629.69;;;32.70;nan
76205;BME280;64986;55.672;37.628;2023-09-19T13:31:38;99617.41;;;31.68;nan
76205;BME280;64986;55.672;37.628;2023-09-19T13:34:07;99619.16;;;33.79;nan
76205;BME280;64986;55.672;37.628;2023-09-19T13:36:32;99616.34;;;33.76;nan
76205;BME280;64986;55.672;37.628;2023-09-19T13:38:59;99625.41;;;33.80;nan
76205;BME280;64986;55.672;37.628;2023-09-19T13:41:25;99623.88;;;33.82;nan
76205;BME280;64986;55.672;37.628;2023-09-19T13:43:51;99615.19;;;34.12;nan
76205;BME280;64986;55.672;37.628;2023-09-19T13:46:17;99613.59;;;34.49;nan
76205;BME280;64986;55.672;37.628;2023-09-19T13:48:50;99600.47;;;35.01;nan
76205;BME280;64986;55.672;37.628;2023-09-19T13:51:17;99603.09;;;34.32;nan
76205;BME280;64986;55.672;37.628;2023-09-19T13:53:44;99612.28;;;34.63;nan
76205;BME280;64986;55.672;37.628;2023-09-19T13:56:10;99606.75;;;34.40;nan
76205;BME280;64986;55.672;37.628;2023-09-19T13:58:36;99607.88;;;33.14;nan
76205;BME280;64986;55.672;37.628;2023-09-19T14:01:02;99602.66;;;31.69;nan
76205;BME280;64986;55.672;37.628;2023-09-19T14:03:28;99613.22;;;31.34;nan
76205;BME280;64986;55.672;37.628;2023-09-19T14:05:54;99604.56;;;30.62;nan
76205;BME280;64986;55.672;37.628;2023-09-19T14:08:19;99606.97;;;29.21;nan
76205;BME280;64986;55.672;37.628;2023-09-19T14:10:45;99594.72;;;28.33;nan
76205;BME280;64986;55.672;37.628;2023-09-19T14:13:11;99597.00;;;27.65;nan
76205;BME280;64986;55.672;37.628;2023-09-19T14:15:38;99595.09;;;27.09;nan
76205;BME280;64986;55.672;37.628;2023-09-19T14:18:04;99596.63;;;26.70;nan
76205;BME280;64986;55.672;37.628;2023-09-19T14:20:30;99593.44;;;26.99;nan
76205;BME280;64986;55.672;37.628;2023-09-19T14:22:57;99586.25;;;28.17;nan
76205;BME280;64986;55.672;37.628;2023-09-19T14:25:24;99598.75;;;29.68;nan
76205;BME280;64986;55.672;37.628;2023-09-19T14:27:50;99595.88;;;30.35;nan
76205;BME280;64986;55.672;37.628;2023-09-19T14:30:18;99595.41;;;31.00;nan
76205;BME280;64986;55.672;37.628;2023-09-19T14:32:44;99591.66;;;31.90;nan
76205;BME280;64986;55.672;37.628;2023-09-19T14:35:17;99588.19;;;32.61;nan
76205;BME280;64986;55.672;37.628;2023-09-19T14:37:43;99587.91;;;32.22;nan
76205;BME280;64986;55.672;37.628;2023-09-19T14:40:10;99586.69;;;32.08;nan
76205;BME280;64986;55.672;37.628;2023-09-19T14:42:39;99584.78;;;32.08;nan
76205;BME280;64986;55.672;37.628;2023-09-19T14:45:05;99590.66;;;32.10;nan
76205;BME280;64986;55.672;37.628;2023-09-19T14:47:32;99589.00;;;32.34;nan
76205;BME280;64986;55.672;37.628;2023-09-19T14:50:03;99586.41;;;32.53;nan
76205;BME280;64986;55.672;37.628;2023-09-19T14:52:33;99587.47;;;32.20;nan
76205;BME280;64986;55.672;37.628;2023-09-19T14:55:00;99583.91;;;31.92;nan
76205;BME280;64986;55.672;37.628;2023-09-19T14:57:26;99581.91;;;31.64;nan
76205;BME280;64986;55.672;37.628;2023-09-19T14:59:52;99583.28;;;31.09;nan
76205;BME280;64986;55.672;37.628;2023-09-19T15:02:18;99586.78;;;30.64;nan
76205;BME280;64986;55.672;37.628;2023-09-19T15:04:43;99581.66;;;30.18;nan
76205;BME280;64986;55.672;37.628;2023-09-19T15:07:10;99579.41;;;29.78;nan
76205;BME280;64986;55.672;37.628;2023-09-19T15:09:35;99571.03;;;29.33;nan
76205;BME280;64986;55.672;37.628;2023-09-19T15:12:01;99576.94;;;28.88;nan
76205;BME280;64986;55.672;37.628;2023-09-19T15:14:27;99579.59;;;28.32;nan
76205;BME280;64986;55.672;37.628;2023-09-19T15:16:55;99582.44;;;27.35;nan
76205;BME280;64986;55.672;37.628;2023-09-19T15:19:20;99608.47;;;26.61;nan
76205;BME280;64986;55.672;37.628;2023-09-19T15:21:47;99577.94;;;25.65;nan
76205;BME280;64986;55.672;37.628;2023-09-19T15:24:13;99578.78;;;25.11;nan
76205;BME280;64986;55.672;37.628;2023-09-19T15:26:39;99574.97;;;24.66;nan
76205;BME280;64986;55.672;37.628;2023-09-19T15:31:31;99579.03;;;23.93;nan
76205;BME280;64986;55.672;37.628;2023-09-19T15:33:57;99581.34;;;23.62;nan
76205;BME280;64986;55.672;37.628;2023-09-19T15:36:23;99576.25;;;23.36;nan
76205;BME280;64986;55.672;37.628;2023-09-19T15:39:07;99582.25;;;23.28;nan
76205;BME280;64986;55.672;37.628;2023-09-19T15:41:45;99585.28;;;22.97;nan
76205;BME280;64986;55.672;37.628;2023-09-19T15:44:15;99580.81;;;22.54;nan
76205;BME280;64986;55.672;37.628;2023-09-19T15:46:42;99578.31;;;22.28;nan
76205;BME280;64986;55.672;37.628;2023-09-19T15:49:09;99573.09;;;22.08;nan
76205;BME280;64986;55.672;37.628;2023-09-19T15:51:35;99580.16;;;21.88;nan
76205;BME280;64986;55.672;37.628;2023-09-19T15:54:07;99576.75;;;21.73;nan